Time;durP1;ratioP1;P1;durP2;ratioP2;P2;SDS_P1;SDS_P2;PMS_P1;PMS_P2;Temp;Humidity;BMP_temperature;BMP_pressure;BME280_temperature;BME280_humidity;BME280_pressure;Samples;Min_cycle;Max_cycle;Signal;HPM_P1;HPM_P2
2021/06/02 00:01:45;;;;;;;10.05;6.82;;;;;;;16.71;49.83;100952.59;4912229;29;20041;-86
2021/06/02 00:04:16;;;;;;;9.23;6.38;;;;;;;16.62;50.03;100948.75;4915533;23;20554;-87
2021/06/02 00:06:48;;;;;;;10.80;7.38;;;;;;;16.56;50.33;100940.34;4902117;29;20101;-87
2021/06/02 00:09:16;;;;;;;9.75;6.93;;;;;;;16.53;50.42;100941.38;4899805;29;20041;-88
2021/06/02 00:11:41;;;;;;;9.18;6.50;;;;;;;16.54;50.81;100934.28;4899650;29;20040;-89
2021/06/02 00:14:13;;;;;;;8.80;5.88;;;;;;;16.31;51.01;100915.44;4911474;29;20131;-87
2021/06/02 00:16:39;;;;;;;8.30;6.20;;;;;;;16.39;51.06;100918.44;4927656;29;20056;-86
2021/06/02 00:19:05;;;;;;;9.02;6.80;;;;;;;16.45;50.60;100928.66;4912598;29;20040;-88
2021/06/02 00:21:34;;;;;;;9.73;6.93;;;;;;;16.52;50.62;100931.75;4912191;29;20065;-86
2021/06/02 00:23:59;;;;;;;8.88;6.70;;;;;;;16.49;50.78;100932.78;4927149;29;20104;-88
2021/06/02 00:26:27;;;;;;;9.65;7.05;;;;;;;16.38;50.96;100922.06;4913988;29;20069;-86
2021/06/02 00:28:53;;;;;;;9.27;7.53;;;;;;;16.14;51.57;100892.72;4913177;29;20096;-85
2021/06/02 00:31:22;;;;;;;12.75;6.63;;;;;;;16.19;51.52;100903.00;4915791;29;20040;-85
2021/06/02 00:33:50;;;;;;;9.85;7.03;;;;;;;16.25;51.41;100921.06;4931337;29;20045;-84
2021/06/02 00:36:20;;;;;;;12.70;7.70;;;;;;;16.26;51.81;100928.88;4914017;29;20156;-85
2021/06/02 00:38:47;;;;;;;9.25;6.40;;;;;;;16.14;51.67;100919.06;4913654;29;20064;-82
2021/06/02 00:41:15;;;;;;;9.52;6.97;;;;;;;16.04;51.79;100896.81;4919881;23;20060;-86
2021/06/02 00:43:43;;;;;;;10.23;7.90;;;;;;;16.19;51.86;100924.06;4912676;29;20040;-87
2021/06/02 00:46:25;;;;;;;9.13;7.10;;;;;;;16.16;52.01;100925.06;4916376;23;20084;-85
2021/06/02 00:48:51;;;;;;;8.65;7.47;;;;;;;16.07;51.90;100912.44;4893743;29;20048;-85
2021/06/02 00:51:20;;;;;;;9.45;7.00;;;;;;;16.18;51.84;100928.47;4895671;29;20060;-83
2021/06/02 00:53:51;;;;;;;7.95;6.40;;;;;;;15.98;51.82;100887.50;4897285;29;20061;-87
2021/06/02 00:56:39;;;;;;;10.43;7.57;;;;;;;16.14;51.75;100929.59;4896903;29;20415;-85
2021/06/02 00:59:10;;;;;;;9.88;6.43;;;;;;;16.05;52.15;100916.94;4894764;29;20041;-87
2021/06/02 01:01:39;;;;;;;7.85;6.20;;;;;;;16.15;51.81;100929.50;4908323;29;20109;-87
2021/06/02 01:04:05;;;;;;;8.63;6.25;;;;;;;15.69;51.92;100847.88;4908655;29;20093;-87
2021/06/02 01:06:36;;;;;;;8.88;7.00;;;;;;;16.12;52.14;100934.09;4895363;29;20062;-87
2021/06/02 01:09:06;;;;;;;9.07;7.25;;;;;;;16.03;52.47;100924.09;4896342;29;20025;-88
2021/06/02 01:11:37;;;;;;;8.57;7.22;;;;;;;15.93;52.63;100924.63;4897784;29;20407;-84
2021/06/02 01:14:03;;;;;;;8.18;7.05;;;;;;;15.93;52.80;100921.13;4893015;29;20041;-86
2021/06/02 01:16:31;;;;;;;8.60;7.15;;;;;;;15.75;52.98;100894.06;4892574;29;20029;-87
2021/06/02 01:18:57;;;;;;;8.13;6.10;;;;;;;15.82;53.05;100904.19;4891174;29;20033;-87
2021/06/02 01:21:26;;;;;;;8.70;7.07;;;;;;;15.86;53.10;100899.59;4891495;29;20141;-86
2021/06/02 01:23:56;;;;;;;11.50;6.93;;;;;;;15.63;53.35;100875.38;4893812;29;20037;-88
2021/06/02 01:26:24;;;;;;;8.68;6.30;;;;;;;15.81;53.29;100905.06;4895580;29;20036;-86
2021/06/02 01:28:52;;;;;;;9.02;6.88;;;;;;;15.69;53.84;100882.09;4898114;29;20036;-87
2021/06/02 01:31:44;;;;;;;8.20;7.07;;;;;;;15.86;53.38;100896.13;4900354;29;20118;-86
2021/06/02 01:34:34;;;;;;;8.90;6.90;;;;;;;15.87;53.34;100893.38;4899778;29;20041;-87
2021/06/02 01:37:34;;;;;;;8.98;6.55;;;;;;;15.78;53.73;100901.78;4903539;29;20041;-87
2021/06/02 01:40:21;;;;;;;11.75;8.27;;;;;;;15.67;53.97;100900.59;4902529;29;20037;-85
2021/06/02 01:43:12;;;;;;;9.38;7.32;;;;;;;15.63;54.13;100895.59;4895532;29;20043;-87
2021/06/02 01:46:00;;;;;;;10.57;7.70;;;;;;;15.61;53.95;100897.47;4893953;29;20033;-86
2021/06/02 01:48:42;;;;;;;8.30;7.15;;;;;;;15.55;54.48;100895.16;4886974;29;20101;-87
2021/06/02 01:51:23;;;;;;;9.50;7.43;;;;;;;15.53;54.42;100901.38;4886545;29;20119;-86
2021/06/02 01:53:54;;;;;;;10.05;7.38;;;;;;;15.53;54.14;100906.63;4887422;29;20055;-87
2021/06/02 01:56:50;;;;;;;10.10;7.18;;;;;;;15.47;54.50;100904.34;4887425;29;20036;-86
2021/06/02 01:59:27;;;;;;;11.05;7.25;;;;;;;15.48;54.51;100902.56;4887977;29;20048;-87
2021/06/02 02:02:14;;;;;;;10.35;8.13;;;;;;;15.49;54.26;100905.13;4887591;29;20040;-87
2021/06/02 02:04:57;;;;;;;12.10;8.15;;;;;;;15.50;54.65;100903.31;4906159;29;20044;-84
2021/06/02 02:07:35;;;;;;;9.43;7.93;;;;;;;15.50;54.39;100901.56;4900480;29;20064;-87
2021/06/02 02:10:19;;;;;;;10.52;7.93;;;;;;;15.46;54.29;100901.81;4895563;29;20499;-87
2021/06/02 02:12:57;;;;;;;10.00;8.45;;;;;;;15.45;54.61;100905.34;4898397;29;20049;-87
2021/06/02 02:15:55;;;;;;;11.52;7.82;;;;;;;15.44;54.50;100904.53;4891824;29;20048;-87
2021/06/02 02:18:42;;;;;;;10.95;7.65;;;;;;;15.42;54.75;100902.91;4894586;29;20041;-87
2021/06/02 02:21:35;;;;;;;10.82;7.70;;;;;;;15.47;54.39;100906.97;4904152;29;20041;-84
2021/06/02 02:24:03;;;;;;;11.90;7.88;;;;;;;15.41;54.55;100899.41;4904865;29;20052;-84
2021/06/02 02:26:37;;;;;;;9.48;7.55;;;;;;;15.41;54.55;100909.09;4905082;29;20052;-85
2021/06/02 02:29:18;;;;;;;9.90;7.50;;;;;;;15.34;54.87;100895.44;4923146;23;20084;-87
2021/06/02 02:31:50;;;;;;;11.07;8.40;;;;;;;15.31;55.30;100901.72;4921767;29;20037;-86
2021/06/02 02:35:01;;;;;;;9.98;7.53;;;;;;;15.14;55.09;100873.69;4903475;29;20040;-87
2021/06/02 02:37:45;;;;;;;9.88;8.00;;;;;;;15.16;55.58;100897.28;4902862;29;20071;-86
2021/06/02 02:40:49;;;;;;;9.30;7.70;;;;;;;15.17;56.00;100902.47;4902894;29;20116;-87
2021/06/02 02:43:52;;;;;;;9.60;7.53;;;;;;;15.11;55.64;100902.81;4903255;29;20040;-86
2021/06/02 02:46:48;;;;;;;11.80;8.38;;;;;;;14.83;55.72;100851.72;4904481;29;20505;-87
2021/06/02 02:49:50;;;;;;;10.05;7.57;;;;;;;15.11;55.54;100899.31;4919771;29;20044;-86
2021/06/02 02:52:40;;;;;;;9.75;8.00;;;;;;;15.07;55.77;100896.00;4929690;29;20100;-85
2021/06/02 02:55:08;;;;;;;12.52;8.13;;;;;;;15.03;55.55;100897.09;4924140;29;20060;-85
2021/06/02 02:58:01;;;;;;;10.50;7.95;;;;;;;15.03;55.77;100887.44;4923085;29;20044;-81
2021/06/02 03:00:42;;;;;;;10.20;7.55;;;;;;;15.03;55.81;100879.53;4916753;29;20067;-85
2021/06/02 03:03:23;;;;;;;11.15;7.38;;;;;;;14.97;55.77;100873.78;4915566;29;20059;-87
2021/06/02 03:06:10;;;;;;;9.25;7.85;;;;;;;14.70;55.87;100830.50;4906773;29;20024;-87
2021/06/02 03:08:50;;;;;;;11.10;7.18;;;;;;;14.64;56.09;100828.16;4905682;29;20072;-87
2021/06/02 03:11:26;;;;;;;9.73;8.10;;;;;;;14.89;56.32;100872.41;4913546;29;20049;-86
2021/06/02 03:14:16;;;;;;;9.90;7.57;;;;;;;14.88;56.14;100872.50;4915816;29;20032;-86
2021/06/02 03:16:48;;;;;;;11.18;8.40;;;;;;;14.69;56.34;100846.34;4907696;29;20036;-87
2021/06/02 03:19:18;;;;;;;10.93;8.02;;;;;;;14.84;56.46;100874.44;4931935;29;20032;-87
2021/06/02 03:22:04;;;;;;;10.63;8.00;;;;;;;14.81;56.48;100865.88;4918392;29;20040;-86
2021/06/02 03:25:00;;;;;;;8.70;7.82;;;;;;;14.77;56.84;100877.47;4919360;29;20041;-87
2021/06/02 03:27:58;;;;;;;12.07;8.63;;;;;;;14.67;56.92;100883.22;4912636;29;20041;-88
2021/06/02 03:30:53;;;;;;;9.15;7.35;;;;;;;14.67;57.18;100890.22;4912421;29;20124;-87
2021/06/02 03:33:42;;;;;;;9.90;8.50;;;;;;;14.62;57.22;100881.72;4903941;29;20040;-87
2021/06/02 03:36:27;;;;;;;8.80;7.63;;;;;;;14.61;57.60;100875.63;4901723;29;20044;-86
2021/06/02 03:39:43;;;;;;;11.00;8.48;;;;;;;14.54;58.07;100874.25;4902867;29;20036;-87
2021/06/02 03:42:47;;;;;;;11.25;7.70;;;;;;;14.33;58.37;100847.28;4919548;29;20036;-87
2021/06/02 03:45:55;;;;;;;10.43;7.97;;;;;;;14.36;58.77;100869.00;4902967;29;20041;-86
2021/06/02 03:48:55;;;;;;;10.52;8.35;;;;;;;14.36;58.79;100866.38;4904422;29;20127;-86
2021/06/02 03:51:36;;;;;;;11.20;8.68;;;;;;;14.27;59.05;100855.50;4901729;29;20033;-86
2021/06/02 03:54:11;;;;;;;11.15;8.38;;;;;;;14.19;59.22;100846.22;4902154;29;20455;-87
2021/06/02 03:57:05;;;;;;;9.75;7.97;;;;;;;14.23;59.32;100863.53;4901277;29;20036;-85
2021/06/02 03:59:44;;;;;;;10.90;8.25;;;;;;;14.17;59.46;100868.22;4901415;29;20362;-87
2021/06/02 04:02:19;;;;;;;11.05;8.73;;;;;;;14.12;59.55;100865.00;4900979;29;20489;-87
2021/06/02 04:05:14;;;;;;;8.82;7.93;;;;;;;14.18;59.38;100855.03;4901803;29;20040;-86
2021/06/02 04:08:04;;;;;;;9.95;7.78;;;;;;;14.17;59.46;100852.47;4900900;29;20096;-86
2021/06/02 04:10:45;;;;;;;9.20;7.63;;;;;;;14.21;58.87;100859.28;4900732;29;20037;-86
2021/06/02 04:13:19;;;;;;;10.25;8.27;;;;;;;14.23;58.70;100862.66;4901098;29;20040;-87
2021/06/02 04:15:58;;;;;;;10.55;8.23;;;;;;;14.27;58.61;100860.75;4901045;29;20032;-87
2021/06/02 04:18:29;;;;;;;10.93;8.60;;;;;;;14.32;58.69;100874.47;4901490;29;20071;-87
2021/06/02 04:20:57;;;;;;;13.35;8.18;;;;;;;14.34;58.54;100862.13;4901245;29;20474;-85
2021/06/02 04:23:23;;;;;;;10.82;8.57;;;;;;;14.39;58.10;100862.72;4905444;29;20127;-86
2021/06/02 04:25:48;;;;;;;12.70;9.20;;;;;;;14.39;58.04;100852.22;4903389;29;20071;-85
2021/06/02 04:28:15;;;;;;;10.48;7.75;;;;;;;14.39;57.90;100849.59;4901426;29;20402;-86
2021/06/02 04:30:49;;;;;;;11.23;8.70;;;;;;;14.27;58.23;100835.34;4902064;29;20037;-86
2021/06/02 04:33:20;;;;;;;8.80;7.82;;;;;;;14.37;58.12;100849.69;4900079;29;20036;-87
2021/06/02 04:35:51;;;;;;;11.85;8.48;;;;;;;14.37;58.09;100841.81;4900705;29;20049;-85
2021/06/02 04:38:20;;;;;;;12.25;8.05;;;;;;;14.42;57.87;100841.56;4900190;29;20131;-86
2021/06/02 04:40:46;;;;;;;11.23;8.45;;;;;;;14.31;57.79;100821.13;4915085;29;20051;-86
2021/06/02 04:43:14;;;;;;;9.20;7.70;;;;;;;14.39;57.85;100842.59;4901281;29;20044;-86
2021/06/02 04:45:52;;;;;;;10.05;7.60;;;;;;;14.55;57.65;100852.31;4900020;29;20382;-85
2021/06/02 04:48:19;;;;;;;10.00;8.43;;;;;;;14.53;57.69;100870.75;4902081;29;20040;-85
2021/06/02 04:51:00;;;;;;;11.02;7.45;;;;;;;14.37;57.57;100820.81;4900233;29;20048;-86
2021/06/02 04:53:50;;;;;;;9.63;8.07;;;;;;;15.04;56.06;100841.81;4900015;29;20045;-86
2021/06/02 04:56:43;;;;;;;9.77;7.85;;;;;;;15.90;53.76;100856.34;4912832;29;20044;-86
2021/06/02 04:59:39;;;;;;;10.82;7.78;;;;;;;16.17;53.04;100847.75;4906578;29;20044;-81
2021/06/02 05:02:26;;;;;;;10.88;7.90;;;;;;;15.76;53.95;100853.63;4900025;29;20202;-85
2021/06/02 05:05:24;;;;;;;8.77;7.65;;;;;;;15.74;53.89;100856.34;4904637;29;20040;-83
2021/06/02 05:08:08;;;;;;;10.30;7.55;;;;;;;15.77;53.78;100850.94;4902628;29;20096;-85
2021/06/02 05:11:19;;;;;;;8.95;7.43;;;;;;;15.65;53.95;100841.09;4915635;29;20041;-84
2021/06/02 05:14:26;;;;;;;11.52;8.45;;;;;;;15.63;54.18;100837.72;4916701;29;20045;-82
2021/06/02 05:17:03;;;;;;;9.75;8.00;;;;;;;15.39;54.91;100835.50;4915364;29;20525;-85
2021/06/02 05:20:02;;;;;;;9.68;7.85;;;;;;;15.32;55.16;100831.56;4911431;29;20044;-84
2021/06/02 05:22:50;;;;;;;11.45;8.20;;;;;;;15.16;55.62;100828.91;4915742;29;20040;-85
2021/06/02 05:25:24;;;;;;;9.65;7.00;;;;;;;15.17;55.88;100827.97;4916712;29;20143;-85
2021/06/02 05:27:55;;;;;;;9.30;7.35;;;;;;;15.30;55.49;100836.06;4913382;29;20044;-85
2021/06/02 05:30:38;;;;;;;8.25;7.30;;;;;;;15.32;55.46;100839.44;4904916;29;20537;-85
2021/06/02 05:33:41;;;;;;;11.38;8.10;;;;;;;15.26;55.84;100839.75;4904488;29;20040;-87
2021/06/02 05:36:24;;;;;;;9.13;7.47;;;;;;;15.37;55.41;100840.88;4904827;29;20028;-86
2021/06/02 05:39:04;;;;;;;11.38;7.47;;;;;;;15.48;55.01;100837.63;4904510;29;20033;-86
2021/06/02 05:41:51;;;;;;;11.63;8.07;;;;;;;15.49;55.04;100834.06;4906126;29;20116;-86
2021/06/02 05:44:40;;;;;;;11.48;7.60;;;;;;;15.50;55.22;100833.16;4910756;29;20044;-83
2021/06/02 05:47:33;;;;;;;9.68;7.47;;;;;;;15.62;54.96;100828.94;4920807;29;20044;-84
2021/06/02 05:50:47;;;;;;;13.88;8.20;;;;;;;15.65;54.77;100835.84;4920075;29;20049;-86
2021/06/02 05:53:50;;;;;;;10.95;7.32;;;;;;;15.64;54.92;100839.41;4920334;29;20139;-86
2021/06/02 05:56:55;;;;;;;10.65;7.63;;;;;;;15.73;54.87;100838.03;4905718;29;20490;-85
2021/06/02 05:59:21;;;;;;;9.07;7.40;;;;;;;15.92;54.35;100832.59;4906863;29;20044;-83
2021/06/02 06:01:57;;;;;;;9.88;7.60;;;;;;;16.02;53.85;100832.88;4916337;29;20052;-85
2021/06/02 06:04:51;;;;;;;8.88;7.10;;;;;;;16.00;53.92;100831.19;4909901;29;20077;-84
2021/06/02 06:07:35;;;;;;;9.85;7.50;;;;;;;16.09;53.89;100826.31;4915525;29;20057;-84
2021/06/02 06:10:29;;;;;;;8.25;7.38;;;;;;;16.21;53.95;100824.72;4916244;29;20055;-85
2021/06/02 06:13:12;;;;;;;9.98;7.82;;;;;;;16.31;53.29;100826.72;4917279;29;20040;-85
2021/06/02 06:15:48;;;;;;;9.40;7.40;;;;;;;16.29;53.18;100817.22;4916983;29;20104;-85
2021/06/02 06:18:34;;;;;;;9.68;7.45;;;;;;;16.49;53.09;100823.94;4891723;29;20550;-86
2021/06/02 06:21:34;;;;;;;10.75;7.38;;;;;;;16.67;52.73;100824.56;4914612;29;20036;-85
2021/06/02 06:24:08;;;;;;;11.25;7.47;;;;;;;16.79;52.59;100823.78;4923811;29;20040;-85
2021/06/02 06:26:45;;;;;;;9.43;7.80;;;;;;;16.90;52.07;100809.09;4920947;29;20025;-85
2021/06/02 06:29:31;;;;;;;10.30;7.25;;;;;;;16.92;52.16;100818.63;4914027;29;20087;-85
2021/06/02 06:32:00;;;;;;;8.38;6.80;;;;;;;16.86;52.21;100795.25;4907893;29;20041;-85
2021/06/02 06:34:30;;;;;;;8.77;6.90;;;;;;;17.09;52.21;100822.00;4906201;29;20036;-85
2021/06/02 06:36:59;;;;;;;11.45;7.60;;;;;;;17.23;51.91;100827.22;4911357;29;20096;-86
2021/06/02 06:39:49;;;;;;;9.45;6.57;;;;;;;17.41;51.44;100816.44;4909101;29;20056;-86
2021/06/02 06:42:18;;;;;;;10.52;6.85;;;;;;;17.64;51.13;100817.56;4907416;29;20044;-85
2021/06/02 06:44:46;;;;;;;9.88;6.90;;;;;;;17.68;51.03;100818.22;4891072;29;20060;-85
2021/06/02 06:47:17;;;;;;;9.02;6.57;;;;;;;17.76;50.93;100815.91;4906585;29;20116;-86
2021/06/02 06:49:49;;;;;;;9.75;7.45;;;;;;;17.91;50.87;100812.22;4906240;29;20036;-86
2021/06/02 06:52:15;;;;;;;12.40;7.97;;;;;;;17.93;50.51;100810.34;4902636;29;20461;-85
2021/06/02 06:54:42;;;;;;;10.18;6.55;;;;;;;17.96;50.54;100793.47;4917312;29;20060;-86
2021/06/02 06:57:08;;;;;;;9.85;7.53;;;;;;;17.98;50.65;100794.22;4902809;29;20163;-85
2021/06/02 06:59:35;;;;;;;9.15;6.72;;;;;;;17.99;50.47;100788.00;4903145;29;20037;-87
2021/06/02 07:02:00;;;;;;;12.68;7.45;;;;;;;18.13;50.65;100804.69;4902872;29;20207;-86
2021/06/02 07:04:32;;;;;;;9.05;7.07;;;;;;;18.00;50.22;100792.31;4902388;29;20143;-85
2021/06/02 07:07:00;;;;;;;7.93;6.93;;;;;;;18.20;50.14;100800.66;4905667;29;20414;-84
2021/06/02 07:09:25;;;;;;;9.32;6.80;;;;;;;18.50;49.79;100820.66;4905938;29;20047;-85
2021/06/02 07:11:55;;;;;;;10.75;6.47;;;;;;;18.52;48.78;100809.00;4906735;29;20494;-86
2021/06/02 07:14:29;;;;;;;9.60;6.45;;;;;;;18.58;49.21;100804.22;4906513;29;20039;-85
2021/06/02 07:16:57;;;;;;;7.60;6.57;;;;;;;18.82;48.73;100812.22;4907166;29;20040;-84
2021/06/02 07:19:23;;;;;;;10.70;6.90;;;;;;;18.82;48.55;100796.38;4906190;29;20158;-86
2021/06/02 07:21:50;;;;;;;9.02;6.28;;;;;;;19.00;48.19;100807.47;4936105;28;20109;-85
2021/06/02 07:24:19;;;;;;;7.70;6.43;;;;;;;19.10;47.89;100784.66;4923118;29;20041;-84
2021/06/02 07:26:47;;;;;;;9.82;6.70;;;;;;;19.31;48.01;100807.88;4923437;29;20085;-82
2021/06/02 07:29:14;;;;;;;8.70;6.22;;;;;;;19.48;47.42;100790.75;4923014;29;20040;-84
2021/06/02 07:31:40;;;;;;;7.47;6.53;;;;;;;19.49;47.59;100795.94;4922456;29;20025;-85
2021/06/02 07:34:06;;;;;;;8.43;6.38;;;;;;;19.58;47.23;100791.75;4933482;29;20372;-85
2021/06/02 07:36:32;;;;;;;7.10;6.43;;;;;;;19.55;47.37;100793.78;4915428;29;20107;-85
2021/06/02 07:38:59;;;;;;;9.52;5.65;;;;;;;19.54;47.72;100778.84;4914680;29;20044;-85
2021/06/02 07:41:24;;;;;;;8.85;6.10;;;;;;;19.70;47.54;100784.69;4908707;29;20083;-86
2021/06/02 07:43:51;;;;;;;7.28;5.63;;;;;;;19.92;47.12;100798.97;4905690;29;20051;-86
2021/06/02 07:46:16;;;;;;;9.00;5.90;;;;;;;19.98;47.25;100777.31;4906688;29;20028;-86
2021/06/02 07:48:42;;;;;;;7.90;5.78;;;;;;;20.11;46.93;100795.78;4906461;29;20065;-86
2021/06/02 07:51:08;;;;;;;8.27;5.88;;;;;;;20.15;46.76;100776.88;4905824;29;20112;-86
2021/06/02 07:53:34;;;;;;;8.23;6.38;;;;;;;20.27;46.56;100784.81;4907109;29;20478;-86
2021/06/02 07:55:59;;;;;;;8.75;5.95;;;;;;;20.07;47.06;100752.75;4906397;29;20088;-87
2021/06/02 07:58:26;;;;;;;8.25;6.60;;;;;;;20.20;46.75;100776.53;4908504;29;20040;-86
2021/06/02 08:00:52;;;;;;;6.72;5.80;;;;;;;20.35;47.03;100779.78;4908692;29;20486;-86
2021/06/02 08:03:17;;;;;;;7.93;5.72;;;;;;;20.45;46.47;100774.59;4908534;29;20060;-83
2021/06/02 08:05:43;;;;;;;6.53;5.88;;;;;;;20.71;46.27;100793.72;4920844;29;20057;-86
2021/06/02 08:08:09;;;;;;;8.43;5.40;;;;;;;20.69;45.78;100771.81;4920089;29;20056;-82
2021/06/02 08:10:36;;;;;;;8.60;5.30;;;;;;;20.93;45.32;100790.25;4920508;29;20092;-83
2021/06/02 08:13:03;;;;;;;6.47;4.97;;;;;;;21.04;45.02;100788.53;4920509;29;20049;-85
2021/06/02 08:15:32;;;;;;;5.68;4.85;;;;;;;21.08;44.32;100784.63;4908580;29;20040;-84
2021/06/02 08:17:58;;;;;;;7.68;4.72;;;;;;;21.34;44.49;100782.50;4908430;29;20036;-83
2021/06/02 08:20:26;;;;;;;6.55;4.70;;;;;;;21.58;44.38;100779.66;4907757;29;20051;-83
2021/06/02 08:22:53;;;;;;;6.32;4.85;;;;;;;21.70;44.05;100779.59;4904702;29;20044;-85
2021/06/02 08:25:22;;;;;;;7.40;5.45;;;;;;;21.72;43.88;100777.66;4905777;29;20041;-83
2021/06/02 08:27:48;;;;;;;7.90;4.93;;;;;;;21.69;43.94;100773.44;4904840;29;20565;-84
2021/06/02 08:30:14;;;;;;;7.05;4.53;;;;;;;21.58;43.89;100755.75;4915381;29;20056;-83
2021/06/02 08:32:43;;;;;;;7.35;4.85;;;;;;;21.66;44.08;100759.59;4906164;29;20072;-86
2021/06/02 08:35:10;;;;;;;6.53;4.55;;;;;;;21.88;43.86;100753.28;4905599;29;20430;-86
2021/06/02 08:37:36;;;;;;;6.20;4.32;;;;;;;22.11;43.26;100769.09;4905255;29;20104;-86
2021/06/02 08:40:06;;;;;;;5.97;4.78;;;;;;;22.11;43.27;100772.56;4908075;29;20082;-86
2021/06/02 08:42:33;;;;;;;7.00;4.35;;;;;;;22.18;43.01;100756.94;4909646;29;20044;-85
2021/06/02 08:44:59;;;;;;;6.47;4.22;;;;;;;22.43;42.60;100766.31;4907528;29;20036;-87
2021/06/02 08:47:29;;;;;;;7.28;4.00;;;;;;;22.50;42.16;100756.81;4907419;29;20071;-85
2021/06/02 08:49:55;;;;;;;5.60;4.18;;;;;;;22.43;42.36;100755.66;4906632;29;20091;-86
2021/06/02 08:52:23;;;;;;;5.85;4.10;;;;;;;22.60;42.46;100770.16;4905025;29;20044;-86
2021/06/02 08:54:48;;;;;;;6.45;4.03;;;;;;;22.71;42.49;100771.84;4918355;29;20043;-85
2021/06/02 08:57:15;;;;;;;9.05;4.10;;;;;;;22.71;42.48;100772.69;4904018;29;20036;-85
2021/06/02 08:59:41;;;;;;;6.57;4.65;;;;;;;22.65;42.65;100773.22;4909977;29;20033;-88
2021/06/02 09:02:07;;;;;;;5.07;4.57;;;;;;;22.69;42.76;100769.34;4904928;29;20029;-89
2021/06/02 09:04:34;;;;;;;7.07;4.60;;;;;;;22.78;43.23;100759.69;4904080;29;20112;-86
2021/06/02 09:07:05;;;;;;;4.85;3.78;;;;;;;23.03;43.17;100776.13;4905078;29;20474;-87
2021/06/02 09:09:31;;;;;;;9.13;4.10;;;;;;;23.02;43.22;100769.97;4904069;29;20156;-90
2021/06/02 09:12:05;;;;;;;5.00;4.20;;;;;;;23.06;43.29;100769.66;4904955;29;20041;-88
2021/06/02 09:14:38;;;;;;;6.57;4.60;;;;;;;23.18;43.02;100758.78;4903247;29;20032;-90
2021/06/02 09:17:10;;;;;;;8.10;4.90;;;;;;;23.36;43.51;100754.59;4919068;29;20085;-87
2021/06/02 09:19:41;;;;;;;7.47;4.75;;;;;;;23.49;43.06;100768.47;4905125;29;20052;-89
2021/06/02 09:22:16;;;;;;;6.32;4.22;;;;;;;23.74;42.90;100755.53;4904291;29;20041;-88
2021/06/02 09:24:57;;;;;;;8.52;4.68;;;;;;;23.82;42.43;100743.16;4906305;29;20032;-88
2021/06/02 09:27:42;;;;;;;5.75;4.65;;;;;;;24.26;41.90;100761.28;4908856;29;20037;-88
2021/06/02 09:30:11;;;;;;;6.80;3.88;;;;;;;24.34;41.63;100741.91;4908924;29;20045;-88
2021/06/02 09:32:52;;;;;;;6.43;3.88;;;;;;;24.57;41.87;100755.69;4909448;29;20036;-89
2021/06/02 09:35:20;;;;;;;6.78;4.82;;;;;;;24.43;42.07;100754.34;4909384;29;20040;-88
2021/06/02 09:37:51;;;;;;;6.15;4.32;;;;;;;24.08;42.46;100699.91;4911189;29;20053;-86
2021/06/02 09:40:22;;;;;;;6.55;4.07;;;;;;;24.23;41.79;100752.75;4908748;29;20124;-89
2021/06/02 09:42:48;;;;;;;6.00;3.92;;;;;;;24.14;41.99;100749.13;4910399;29;20104;-88
2021/06/02 09:45:14;;;;;;;4.93;4.00;;;;;;;24.01;42.33;100748.63;4924188;29;20068;-88
2021/06/02 09:47:48;;;;;;;7.20;4.13;;;;;;;24.18;42.15;100739.88;4909062;29;20120;-87
2021/06/02 09:50:17;;;;;;;;;;;;;;;24.22;41.41;100745.75;4910166;29;20449;-89
2021/06/02 09:52:52;;;;;;;6.65;3.55;;;;;;;24.41;41.85;100731.47;4908953;29;19955;-88
2021/06/02 09:55:24;;;;;;;6.35;4.15;;;;;;;24.92;41.50;100747.91;4922849;29;20041;-87
2021/06/02 09:58:13;;;;;;;7.93;4.95;;;;;;;25.35;40.40;100738.31;4906001;29;20047;-89
2021/06/02 10:00:45;;;;;;;8.27;4.60;;;;;;;25.33;40.89;100718.03;4906714;29;20129;-87
2021/06/02 10:03:18;;;;;;;5.72;4.70;;;;;;;25.94;40.02;100732.38;4910649;29;20467;-88
2021/06/02 10:05:54;;;;;;;7.85;4.88;;;;;;;25.92;39.90;100726.34;4909746;29;20029;-87
2021/06/02 10:08:27;;;;;;;7.43;4.78;;;;;;;26.04;40.44;100734.94;4923970;29;20099;-89
2021/06/02 10:10:54;;;;;;;6.85;4.78;;;;;;;26.11;40.25;100740.50;4911797;29;20043;-89
2021/06/02 10:13:27;;;;;;;6.45;4.45;;;;;;;26.62;39.16;100745.88;4918190;29;20037;-85
2021/06/02 10:15:54;;;;;;;;;;;;;;;26.48;38.76;100739.34;4922206;29;20044;-90
2021/06/02 10:18:34;;;;;;;9.60;3.97;;;;;;;26.60;38.69;100737.19;4907084;29;19951;-89
2021/06/02 10:21:12;;;;;;;6.40;4.10;;;;;;;26.46;38.46;100752.84;4906778;29;20040;-89
2021/06/02 10:23:43;;;;;;;6.57;3.97;;;;;;;26.39;38.94;100756.34;4906278;29;20044;-89
2021/06/02 10:26:15;;;;;;;6.63;3.70;;;;;;;26.90;38.37;100754.53;4907777;29;20624;-89
2021/06/02 10:28:41;;;;;;;7.25;4.07;;;;;;;27.29;37.60;100748.56;4922304;29;20490;-89
2021/06/02 10:31:10;;;;;;;6.53;4.00;;;;;;;27.04;38.59;100741.47;4909156;29;20041;-88
2021/06/02 10:33:36;;;;;;;7.07;3.72;;;;;;;26.96;38.89;100745.81;4909103;29;20044;-88
2021/06/02 10:36:07;;;;;;;7.88;4.07;;;;;;;26.65;39.61;100756.28;4907615;29;20139;-89
2021/06/02 10:38:47;;;;;;;5.70;4.43;;;;;;;26.94;38.98;100747.84;4908112;29;20040;-89
2021/06/02 10:41:22;;;;;;;5.13;4.03;;;;;;;27.10;39.00;100722.91;4907489;29;20039;-89
2021/06/02 10:43:57;;;;;;;6.47;3.33;;;;;;;27.64;38.32;100741.16;4909602;29;20064;-87
2021/06/02 10:46:27;;;;;;;6.32;3.92;;;;;;;27.56;38.02;100734.97;4908391;29;20131;-89
2021/06/02 10:48:54;;;;;;;4.55;3.75;;;;;;;27.43;38.44;100743.56;4906809;29;20039;-89
2021/06/02 10:51:39;;;;;;;3.70;2.88;;;;;;;27.21;38.71;100750.38;4907302;29;20041;-89
2021/06/02 10:54:09;;;;;;;7.03;3.67;;;;;;;27.11;38.85;100727.28;4908852;29;20037;-89
2021/06/02 10:56:37;;;;;;;5.25;3.67;;;;;;;27.57;37.74;100740.16;4906653;29;20534;-88
2021/06/02 10:59:23;;;;;;;5.60;3.65;;;;;;;27.57;37.06;100729.44;4905654;29;20467;-89
2021/06/02 11:02:19;;;;;;;5.30;3.58;;;;;;;28.10;36.57;100726.34;4906466;29;20060;-88
2021/06/02 11:04:58;;;;;;;7.22;4.20;;;;;;;27.93;37.26;100752.38;4906618;29;20041;-87
2021/06/02 11:07:26;;;;;;;5.50;4.30;;;;;;;27.83;37.22;100725.75;4913175;29;20025;-87
2021/06/02 11:10:07;;;;;;;6.18;4.05;;;;;;;27.96;37.30;100741.28;4923060;29;20040;-85
2021/06/02 11:12:48;;;;;;;6.60;3.97;;;;;;;28.00;37.18;100734.53;4922795;29;20040;-87
2021/06/02 11:15:28;;;;;;;9.13;4.00;;;;;;;28.06;37.67;100731.22;4923152;29;20037;-88
2021/06/02 11:18:20;;;;;;;5.72;3.97;;;;;;;27.95;37.98;100743.13;4922240;29;20044;-86
2021/06/02 11:20:57;;;;;;;6.28;3.92;;;;;;;27.74;38.73;100746.34;4907352;29;20041;-87
2021/06/02 11:23:34;;;;;;;6.45;4.22;;;;;;;27.25;39.47;100738.34;4907542;29;20028;-88
2021/06/02 11:26:25;;;;;;;8.55;4.07;;;;;;;27.54;38.88;100742.34;4904625;29;20032;-88
2021/06/02 11:28:51;;;;;;;5.07;3.53;;;;;;;27.91;37.87;100735.59;4903923;29;20045;-88
2021/06/02 11:31:30;;;;;;;7.13;3.90;;;;;;;28.23;37.71;100742.72;4904874;29;20443;-87
2021/06/02 11:34:24;;;;;;;4.80;3.95;;;;;;;27.68;37.99;100748.88;4903874;29;20068;-86
2021/06/02 11:37:06;;;;;;;6.53;3.88;;;;;;;27.23;39.35;100745.69;4903975;29;20427;-87
2021/06/02 11:39:36;;;;;;;8.48;3.90;;;;;;;27.17;39.37;100745.38;4916814;23;20139;-90
2021/06/02 11:42:06;;;;;;;7.78;4.00;;;;;;;27.17;39.94;100747.19;4934388;23;20069;-89
2021/06/02 11:44:35;;;;;;;6.80;4.30;;;;;;;26.98;39.43;100703.66;4910283;29;20040;-89
2021/06/02 11:47:24;;;;;;;6.05;3.60;;;;;;;27.17;40.22;100744.50;4911796;29;20397;-89
2021/06/02 11:50:18;;;;;;;6.07;4.05;;;;;;;26.98;40.25;100751.88;4911494;29;20064;-83
2021/06/02 11:52:54;;;;;;;6.30;4.20;;;;;;;26.52;41.46;100732.66;4912196;29;20048;-82
2021/06/02 11:55:19;;;;;;;5.63;4.35;;;;;;;26.07;42.26;100723.94;4928695;29;20033;-78
2021/06/02 11:57:55;;;;;;;5.85;4.30;;;;;;;26.36;42.46;100761.00;4917408;29;20067;-80
2021/06/02 12:00:26;;;;;;;10.65;4.93;;;;;;;26.01;42.69;100748.63;4917592;29;20043;-82
2021/06/02 12:02:54;;;;;;;8.02;4.55;;;;;;;25.96;43.17;100775.00;4918125;29;20040;-80
2021/06/02 12:05:28;;;;;;;7.93;4.95;;;;;;;26.03;43.43;100749.31;4919555;29;20053;-83
2021/06/02 12:07:59;;;;;;;6.55;4.55;;;;;;;26.18;43.19;100777.19;4919696;29;20039;-81